This is the latest recevied weather packets stored in our database for station/object SIILIN. If no packets are shown the sender has not sent any weather packets the latest 1 day(s).
| Time | Temp. | Humidity | Pressure | Rain* | Wind** | Luminosity | Snow |
|---|---|---|---|---|---|---|---|
| 1836274173 | 12.22° C | 94% | 1005.6 hPa | - | 5.81 m/s, 159° | - | - |
| 1778038042 | 2.22° C | 80% | 1009.3 hPa | - | 4.92 m/s, 232° | - | - |
| 1778036843 | 1.67° C | 81% | 1009.1 hPa | - | 4.92 m/s, 232° | - | - |
| 1778033242 | 2.22° C | 82% | 1008.4 hPa | - | 5.36 m/s, 255° | - | - |
| 1778032042 | 2.22° C | 82% | 1008.3 hPa | - | 5.36 m/s, 248° | - | - |
| 1778030842 | 2.22° C | 84% | 1008.3 hPa | - | 5.36 m/s, 234° | - | - |
| 1778029642 | 2.22° C | 84% | 1008.1 hPa | - | 5.36 m/s, 235° | - | - |
| 1778028442 | 2.78° C | 85% | 1007.7 hPa | - | 4.92 m/s, 224° | - | - |
| 1778027242 | 2.78° C | 82% | 1007.7 hPa | - | 5.36 m/s, 231° | - | - |
| 1778026042 | 2.78° C | 80% | 1007.6 hPa | - | 4.47 m/s, 232° | - | - |
| 1778024842 | 2.78° C | 80% | 1007.5 hPa | - | 4.02 m/s, 232° | - | - |
| 1778023642 | 2.78° C | 78% | 1007.5 hPa | - | 4.92 m/s, 233° | - | - |
| 1778022442 | 2.78° C | 75% | 1007.5 hPa | - | 4.02 m/s, 227° | - | - |
| 1778021242 | 3.33° C | 73% | 1007.4 hPa | - | 5.36 m/s, 240° | - | - |
| 1778020041 | 3.33° C | 73% | 1007.3 hPa | - | 5.81 m/s, 253° | - | - |
| 1778018842 | 3.33° C | 70% | 1007.3 hPa | - | 4.92 m/s, 250° | - | - |
| 1778017642 | 3.33° C | 68% | 1007.2 hPa | - | 6.26 m/s, 248° | - | - |
| 1778016442 | 3.89° C | 66% | 1007.1 hPa | - | 5.81 m/s, 253° | - | - |
| 1778015241 | 3.89° C | 67% | 1006.9 hPa | - | 6.26 m/s, 257° | - | - |
| 1778014041 | 4.44° C | 65% | 1006.7 hPa | - | 6.26 m/s, 258° | - | - |
| 1778012842 | 4.44° C | 59% | 1006.5 hPa | - | 6.71 m/s, 263° | - | - |
| 1778011641 | 4.44° C | 60% | 1006.4 hPa | - | 6.71 m/s, 268° | - | - |
| 1778010440 | 5° C | 56% | 1006.3 hPa | - | 5.36 m/s, 255° | - | - |
| 1778009241 | 5.56° C | 53% | 1006.2 hPa | - | 6.71 m/s, 261° | - | - |
| 1778008041 | 5.56° C | 54% | 1006 hPa | - | 6.71 m/s, 263° | - | - |
* Rain since midnight (hover to see other rain measurements)
** Current wind speed in m/s (hover to see current wind gust speed)